createdAt,value
2019-04-26T00:02:10.280Z,77.20
2019-04-26T00:05:14.391Z,77.00
2019-04-26T00:08:17.923Z,77.30
2019-04-26T00:11:47.845Z,77.00
2019-04-26T00:15:10.101Z,77.00
2019-04-26T00:18:14.649Z,77.10
2019-04-26T00:21:18.245Z,77.00
2019-04-26T00:24:21.449Z,76.80
2019-04-26T00:27:24.036Z,76.80
2019-04-26T00:30:26.512Z,76.60
2019-04-26T00:33:29.111Z,76.80
2019-04-26T00:36:31.482Z,76.80
2019-04-26T00:39:33.866Z,76.60
2019-04-26T00:42:36.514Z,76.70
2019-04-26T00:45:39.158Z,76.90
2019-04-26T00:48:43.371Z,76.70
2019-04-26T00:51:46.568Z,76.80
2019-04-26T00:54:49.016Z,76.80
2019-04-26T00:57:51.783Z,76.80
2019-04-26T01:00:54.207Z,76.30
2019-04-26T01:03:56.662Z,76.30
2019-04-26T01:06:59.475Z,76.10
2019-04-26T01:10:01.819Z,76.30
2019-04-26T01:13:04.178Z,76.30
2019-04-26T01:16:06.609Z,76.40
2019-04-26T01:19:10.655Z,76.30
2019-04-26T01:22:19.297Z,76.30
2019-04-26T01:25:37.388Z,76.20
2019-04-26T01:28:54.267Z,76.40
2019-04-26T01:32:05.782Z,76.40
2019-04-26T01:35:08.380Z,76.40
2019-04-26T01:38:12.418Z,76.50
2019-04-26T01:41:24.083Z,76.40
2019-04-26T01:44:39.151Z,76.70
2019-04-26T01:47:41.878Z,76.50
2019-04-26T01:50:44.297Z,76.60
2019-04-26T01:53:50.786Z,76.30
2019-04-26T01:56:57.507Z,76.50
2019-04-26T02:00:29.550Z,76.50
2019-04-26T02:03:32.079Z,76.50
2019-04-26T02:06:35.317Z,76.40
2019-04-26T02:09:37.780Z,76.40
2019-04-26T02:12:44.031Z,76.40
2019-04-26T02:15:46.432Z,76.80
2019-04-26T02:18:48.850Z,76.80
2019-04-26T02:21:57.520Z,77.20
2019-04-26T02:25:00.029Z,76.90
2019-04-26T02:28:02.344Z,76.70
2019-04-26T02:31:04.783Z,76.80
2019-04-26T02:34:08.494Z,77.20
2019-04-26T02:37:14.115Z,77.90
2019-04-26T02:40:17.935Z,77.20
2019-04-26T02:43:23.894Z,77.20
2019-04-26T02:46:58.976Z,77.50
2019-04-26T02:50:06.104Z,77.20
2019-04-26T02:53:31.011Z,78.00
2019-04-26T02:56:40.093Z,77.60
2019-04-26T02:59:45.281Z,78.00
2019-04-26T03:03:00.252Z,78.10
2019-04-26T03:06:06.038Z,77.90
2019-04-26T03:09:08.466Z,78.90
2019-04-26T03:12:14.400Z,78.80
2019-04-26T03:15:30.353Z,78.80
2019-04-26T03:19:01.171Z,78.80
2019-04-26T03:22:51.878Z,78.90
2019-04-26T03:26:10.409Z,78.60
2019-04-26T03:29:44.783Z,78.90
2019-04-26T03:32:59.574Z,78.80
2019-04-26T03:36:30.149Z,78.80
2019-04-26T03:40:09.307Z,78.30
2019-04-26T03:43:30.428Z,78.50
2019-04-26T03:46:48.558Z,78.60
2019-04-26T03:50:16.338Z,78.60
2019-04-26T03:53:54.451Z,78.40
2019-04-26T03:57:25.800Z,78.60
2019-04-26T04:00:51.569Z,78.20
2019-04-26T04:04:02.494Z,78.60
2019-04-26T04:07:08.726Z,78.70
2019-04-26T04:10:18.337Z,78.60
2019-04-26T04:13:49.204Z,78.40
2019-04-26T04:17:17.797Z,79.00
2019-04-26T04:21:17.194Z,78.70
2019-04-26T04:24:46.979Z,78.90
2019-04-26T04:27:59.136Z,79.40
2019-04-26T04:31:13.801Z,79.00
2019-04-26T04:34:25.841Z,79.50
2019-04-26T04:37:32.044Z,79.80
2019-04-26T04:41:20.798Z,79.80
2019-04-26T04:45:26.279Z,79.80
2019-04-26T04:49:06.927Z,79.30
2019-04-26T04:52:48.217Z,79.60
2019-04-26T04:56:09.003Z,79.60
2019-04-26T04:59:18.579Z,79.10
2019-04-26T05:02:56.167Z,79.10
2019-04-26T05:06:29.289Z,79.40
2019-04-26T05:09:33.689Z,80.20
2019-04-26T05:12:50.363Z,79.20
2019-04-26T05:16:33.071Z,79.40
2019-04-26T05:20:23.936Z,79.20
2019-04-26T05:23:55.880Z,79.20
2019-04-26T05:27:39.040Z,79.50
2019-04-26T05:31:07.625Z,79.70
2019-04-26T05:34:34.158Z,79.60
2019-04-26T05:38:18.378Z,80.00
2019-04-26T05:41:37.384Z,80.10
2019-04-26T05:45:28.865Z,80.10
2019-04-26T05:49:03.857Z,79.70
2019-04-26T05:52:43.177Z,79.70
2019-04-26T05:56:43.841Z,79.90
2019-04-26T06:00:24.274Z,79.40
2019-04-26T06:04:09.964Z,79.20
2019-04-26T06:07:28.814Z,78.70
2019-04-26T06:10:54.155Z,78.60
2019-04-26T06:14:32.082Z,78.30
2019-04-26T06:18:08.222Z,78.20
2019-04-26T06:21:32.630Z,78.10
2019-04-26T06:25:35.090Z,78.50
2019-04-26T06:28:56.832Z,77.90
2019-04-26T06:32:11.733Z,78.20
2019-04-26T06:35:20.111Z,78.40
2019-04-26T06:39:39.766Z,78.20
2019-04-26T06:43:35.040Z,77.90
2019-04-26T06:47:04.884Z,77.50
2019-04-26T06:50:20.463Z,77.50
2019-04-26T06:54:06.405Z,77.10
2019-04-26T06:57:59.393Z,76.30
2019-04-26T07:01:13.815Z,74.20
2019-04-26T07:04:44.213Z,74.10
2019-04-26T07:08:40.786Z,73.50
2019-04-26T07:12:24.262Z,73.40
2019-04-26T07:15:44.708Z,74.20
2019-04-26T07:19:23.969Z,74.30
2019-04-26T07:22:51.427Z,72.80
2019-04-26T07:26:24.596Z,73.10
2019-04-26T07:29:46.034Z,73.50
2019-04-26T07:33:28.958Z,72.40
2019-04-26T07:37:08.880Z,72.70
2019-04-26T07:40:51.846Z,72.70
2019-04-26T07:44:26.739Z,71.90
2019-04-26T07:48:32.137Z,70.70
2019-04-26T07:52:19.160Z,71.50
2019-04-26T07:55:47.636Z,71.40
2019-04-26T07:59:26.572Z,70.60
2019-04-26T08:02:59.635Z,71.60
2019-04-26T08:06:52.792Z,70.90
2019-04-26T08:10:07.899Z,70.80
2019-04-26T08:13:15.272Z,70.00
2019-04-26T08:16:42.787Z,69.90
2019-04-26T08:19:57.774Z,69.00
2019-04-26T08:23:09.083Z,68.10
2019-04-26T08:26:13.805Z,68.30
2019-04-26T08:29:20.013Z,68.20
2019-04-26T08:32:28.204Z,67.80
2019-04-26T08:35:34.046Z,65.70
2019-04-26T08:38:37.828Z,66.20
2019-04-26T08:41:42.141Z,64.90
2019-04-26T08:44:52.147Z,66.20
2019-04-26T08:48:17.623Z,63.70
2019-04-26T08:51:22.059Z,62.80
2019-04-26T08:54:28.693Z,62.80
2019-04-26T08:57:35.117Z,63.80
2019-04-26T09:01:13.029Z,62.70
2019-04-26T09:04:23.799Z,61.20
2019-04-26T09:07:32.800Z,60.50
2019-04-26T09:10:39.245Z,61.60
2019-04-26T09:13:46.711Z,61.40
2019-04-26T09:16:50.541Z,58.60
2019-04-26T09:19:53.268Z,60.30
2019-04-26T09:23:13.965Z,57.40
2019-04-26T09:26:24.797Z,58.80
2019-04-26T09:29:41.851Z,56.00
2019-04-26T09:33:03.109Z,56.70
2019-04-26T09:36:06.278Z,58.80
2019-04-26T09:39:28.427Z,56.90
2019-04-26T09:42:46.649Z,58.10
2019-04-26T09:46:11.230Z,57.50
2019-04-26T09:49:48.287Z,56.50
2019-04-26T09:52:51.030Z,56.60
2019-04-26T09:55:53.497Z,53.60
2019-04-26T09:58:55.377Z,53.70
2019-04-26T10:01:59.472Z,55.10
2019-04-26T10:05:02.124Z,54.00
2019-04-26T10:08:04.047Z,54.10
2019-04-26T10:11:09.592Z,54.30
2019-04-26T10:14:54.314Z,53.30
2019-04-26T10:17:56.845Z,55.10
2019-04-26T10:20:58.841Z,55.30
2019-04-26T10:24:01.302Z,56.20
2019-04-26T10:27:04.699Z,53.80
2019-04-26T10:30:09.668Z,52.30
2019-04-26T10:33:12.307Z,54.70
2019-04-26T10:36:14.180Z,50.30
2019-04-26T10:39:18.445Z,50.00
2019-04-26T10:42:21.159Z,51.50
2019-04-26T10:45:24.426Z,50.60
2019-04-26T10:48:26.863Z,50.80
2019-04-26T10:51:38.627Z,50.80
2019-04-26T10:54:41.392Z,51.60
2019-04-26T10:57:45.758Z,49.30
2019-04-26T11:00:52.664Z,49.30
2019-04-26T11:03:55.058Z,50.60
2019-04-26T11:06:58.092Z,50.70
2019-04-26T11:10:02.929Z,52.60
2019-04-26T11:13:05.752Z,50.40
2019-04-26T11:16:08.941Z,47.70
2019-04-26T11:19:11.500Z,48.60
2019-04-26T11:22:13.453Z,49.00
2019-04-26T11:25:15.899Z,49.50
2019-04-26T11:28:21.428Z,47.00
2019-04-26T11:31:23.325Z,46.30
2019-04-26T11:34:26.265Z,45.20
2019-04-26T11:37:28.176Z,48.00
2019-04-26T11:40:30.653Z,46.70
2019-04-26T11:43:32.491Z,46.90
2019-04-26T11:46:44.743Z,46.40
2019-04-26T11:49:41.600Z,47.50
2019-04-26T11:52:43.832Z,45.90
2019-04-26T11:55:45.708Z,45.90
2019-04-26T11:58:48.508Z,47.00
2019-04-26T12:01:50.957Z,46.70
2019-04-26T12:05:10.320Z,42.90
2019-04-26T12:08:15.322Z,46.40
2019-04-26T12:11:19.133Z,47.90
2019-04-26T12:14:22.065Z,45.20
2019-04-26T12:17:26.873Z,45.70
2019-04-26T12:20:31.197Z,48.10
2019-04-26T12:23:33.661Z,49.10
2019-04-26T12:26:42.916Z,48.10
2019-04-26T12:29:39.801Z,47.60
2019-04-26T12:32:41.751Z,48.00
2019-04-26T12:35:44.206Z,45.40
2019-04-26T12:38:46.094Z,43.80
2019-04-26T12:41:48.499Z,44.60
2019-04-26T12:45:16.708Z,45.60
2019-04-26T12:48:21.411Z,45.20
2019-04-26T12:51:23.864Z,48.50
2019-04-26T12:54:25.782Z,46.80
2019-04-26T12:57:28.185Z,48.30
2019-04-26T13:00:32.956Z,48.50
2019-04-26T13:03:34.858Z,49.40
2019-04-26T13:06:56.974Z,50.40
2019-04-26T13:10:14.411Z,48.60
2019-04-26T13:13:36.321Z,48.90
2019-04-26T13:16:48.800Z,47.60
2019-04-26T13:19:53.810Z,47.70
2019-04-26T13:22:56.003Z,47.90
2019-04-26T13:25:59.810Z,47.70
2019-04-26T13:29:02.119Z,48.00
2019-04-26T13:32:04.091Z,48.20
2019-04-26T13:35:07.282Z,48.70
2019-04-26T13:38:10.879Z,50.20
2019-04-26T13:41:12.761Z,47.40
2019-04-26T13:44:17.762Z,48.50
2019-04-26T13:47:55.124Z,46.10
2019-04-26T13:51:05.626Z,43.20
2019-04-26T13:54:07.051Z,44.20
2019-04-26T13:57:10.186Z,44.90
2019-04-26T14:00:17.327Z,47.70
2019-04-26T14:03:19.781Z,43.20
2019-04-26T14:06:21.899Z,41.40
2019-04-26T14:09:24.395Z,43.50
2019-04-26T14:12:26.890Z,44.40
2019-04-26T14:15:29.580Z,43.60
2019-04-26T14:18:34.673Z,45.00
2019-04-26T14:21:36.332Z,46.70
2019-04-26T14:24:45.583Z,45.70
2019-04-26T14:27:51.583Z,45.30
2019-04-26T14:30:54.229Z,46.50
2019-04-26T14:33:56.817Z,44.50
2019-04-26T14:37:06.474Z,41.70
2019-04-26T14:40:16.638Z,43.30
2019-04-26T14:43:08.610Z,42.80
2019-04-26T14:46:14.623Z,42.20
2019-04-26T14:49:19.188Z,40.30
2019-04-26T14:52:24.069Z,39.30
2019-04-26T14:55:25.028Z,39.70
2019-04-26T14:58:30.306Z,39.60
2019-04-26T15:01:54.517Z,39.20
2019-04-26T15:05:19.293Z,40.50
2019-04-26T15:08:22.617Z,41.20
2019-04-26T15:11:25.182Z,40.30
2019-04-26T15:14:27.716Z,40.90
2019-04-26T15:17:30.185Z,41.00
2019-04-26T15:20:32.717Z,42.10
2019-04-26T15:23:35.169Z,41.20
2019-04-26T15:26:37.055Z,42.80
2019-04-26T15:29:39.445Z,43.40
2019-04-26T15:32:42.655Z,43.60
2019-04-26T15:35:46.162Z,44.20
2019-04-26T15:38:49.377Z,43.30
2019-04-26T15:42:14.414Z,40.60
2019-04-26T15:45:42.437Z,39.30
2019-04-26T15:48:54.603Z,40.80
2019-04-26T15:51:56.411Z,42.20
2019-04-26T15:55:03.502Z,43.50
2019-04-26T15:58:08.242Z,44.30
2019-04-26T16:01:10.910Z,44.90
2019-04-26T16:04:13.296Z,42.50
2019-04-26T16:07:26.998Z,40.80
2019-04-26T16:10:25.510Z,40.70
2019-04-26T16:13:25.388Z,40.90
2019-04-26T16:16:29.165Z,43.20
2019-04-26T16:19:32.110Z,42.40
2019-04-26T16:22:33.970Z,41.80
2019-04-26T16:25:38.343Z,41.70
2019-04-26T16:29:18.162Z,41.50
2019-04-26T16:32:43.256Z,39.40
2019-04-26T16:35:45.922Z,38.60
2019-04-26T16:41:52.468Z,38.90
2019-04-26T16:44:55.338Z,39.70
2019-04-26T16:47:58.003Z,39.80
2019-04-26T16:51:01.097Z,38.30
2019-04-26T16:54:08.706Z,38.20
2019-04-26T17:00:16.317Z,38.00
2019-04-26T17:03:17.880Z,39.30
2019-04-26T17:06:19.876Z,39.40
2019-04-26T17:09:23.614Z,40.00
2019-04-26T17:09:37.221Z,38.60
2019-04-26T17:09:50.249Z,38.70
2019-04-26T17:12:26.319Z,40.40
2019-04-26T17:15:28.290Z,40.10
2019-04-26T17:18:32.297Z,41.30
2019-04-26T17:21:43.062Z,42.60
2019-04-26T17:25:26.623Z,41.70
2019-04-26T17:28:27.428Z,42.40
2019-04-26T17:31:29.379Z,43.80
2019-04-26T17:34:33.639Z,43.70
2019-04-26T17:37:36.224Z,44.60
2019-04-26T17:40:38.201Z,44.70
2019-04-26T17:43:46.940Z,46.00
2019-04-26T17:46:48.946Z,45.40
2019-04-26T17:49:52.364Z,45.80
2019-04-26T17:52:54.821Z,44.20
2019-04-26T17:55:56.843Z,43.20
2019-04-26T17:59:03.201Z,43.30
2019-04-26T18:02:04.230Z,42.50
2019-04-26T18:05:07.095Z,42.80
2019-04-26T18:08:32.795Z,43.50
2019-04-26T18:11:19.767Z,44.00
2019-04-26T18:14:21.548Z,45.40
2019-04-26T18:17:53.082Z,45.20
2019-04-26T18:21:19.167Z,44.60
2019-04-26T18:24:17.533Z,45.50
2019-04-26T18:27:19.767Z,46.10
2019-04-26T18:30:23.636Z,46.40
2019-04-26T18:33:26.225Z,46.60
2019-04-26T18:36:31.910Z,47.70
2019-04-26T18:39:33.182Z,49.00
2019-04-26T18:42:37.601Z,48.80
2019-04-26T18:45:44.462Z,49.40
2019-04-26T18:48:49.007Z,49.70
2019-04-26T18:51:51.783Z,50.10
2019-04-26T18:55:05.518Z,50.40
2019-04-26T18:58:06.409Z,51.20
2019-04-26T19:01:11.022Z,52.00
2019-04-26T19:04:15.458Z,52.40
2019-04-26T19:07:17.760Z,52.90
2019-04-26T19:10:21.600Z,53.30
2019-04-26T19:13:43.893Z,53.90
2019-04-26T19:16:59.066Z,53.80
2019-04-26T19:20:29.700Z,54.10
2019-04-26T19:23:32.342Z,54.20
2019-04-26T19:26:35.169Z,54.60
2019-04-26T19:29:37.733Z,55.50
2019-04-26T19:32:40.617Z,55.90
2019-04-26T19:35:44.010Z,56.40
2019-04-26T19:38:49.820Z,56.90
2019-04-26T19:41:57.513Z,56.40
2019-04-26T19:45:11.733Z,57.30
2019-04-26T19:48:19.183Z,57.90
2019-04-26T19:51:43.595Z,57.70
2019-04-26T19:54:54.069Z,57.90
2019-04-26T19:58:02.467Z,58.60
2019-04-26T20:01:04.979Z,59.40
2019-04-26T20:04:07.483Z,59.00
2019-04-26T20:07:09.993Z,58.90
2019-04-26T20:10:12.901Z,59.50
2019-04-26T20:13:16.574Z,59.70
2019-04-26T20:16:22.248Z,59.70
2019-04-26T20:19:34.385Z,58.70
2019-04-26T20:22:30.579Z,59.30
2019-04-26T20:25:33.350Z,59.40
2019-04-26T20:28:37.438Z,59.20
2019-04-26T20:32:05.755Z,60.20
2019-04-26T20:35:26.392Z,60.20
2019-04-26T20:38:24.467Z,60.20
2019-04-26T20:41:27.228Z,60.70
2019-04-26T20:44:39.689Z,60.70
2019-04-26T20:47:34.048Z,60.50
2019-04-26T20:50:36.885Z,60.90
2019-04-26T20:53:41.282Z,61.70
2019-04-26T20:56:46.163Z,62.00
2019-04-26T20:59:52.057Z,61.80
2019-04-26T21:02:54.198Z,61.90
2019-04-26T21:05:59.290Z,62.30
2019-04-26T21:09:03.367Z,63.00
2019-04-26T21:12:07.916Z,63.70
2019-04-26T21:15:11.483Z,63.60
2019-04-26T21:18:14.046Z,64.50
2019-04-26T21:21:16.600Z,64.30
2019-04-26T21:24:20.149Z,64.50
2019-04-26T21:27:48.827Z,64.70
2019-04-26T21:31:14.547Z,64.90
2019-04-26T21:34:21.493Z,65.10
2019-04-26T21:37:34.153Z,65.30
2019-04-26T21:40:51.030Z,65.80
2019-04-26T21:43:53.506Z,65.60
2019-04-26T21:46:58.878Z,66.10
2019-04-26T21:50:00.782Z,67.00
2019-04-26T21:53:06.760Z,67.20
2019-04-26T21:56:11.561Z,67.50
2019-04-26T21:59:13.775Z,67.90
2019-04-26T22:02:16.836Z,68.50
2019-04-26T22:05:19.317Z,68.00
2019-04-26T22:08:26.058Z,67.80
2019-04-26T22:11:28.463Z,68.60
2019-04-26T22:14:34.164Z,68.30
2019-04-26T22:17:40.593Z,68.90
2019-04-26T22:20:50.936Z,68.00
2019-04-26T22:23:58.887Z,67.90
2019-04-26T22:27:01.324Z,68.20
2019-04-26T22:30:07.419Z,68.20
2019-04-26T22:33:09.899Z,67.80
2019-04-26T22:36:13.167Z,67.60
2019-04-26T22:39:17.058Z,67.70
2019-04-26T22:42:19.474Z,68.00
2019-04-26T22:45:33.553Z,67.90
2019-04-26T22:48:37.161Z,68.00
2019-04-26T22:51:39.909Z,67.60
2019-04-26T22:54:46.418Z,67.80
2019-04-26T22:57:49.680Z,67.70
2019-04-26T23:00:51.307Z,67.70
2019-04-26T23:03:53.925Z,67.70
2019-04-26T23:06:56.601Z,67.90
2019-04-26T23:09:59.123Z,68.00
2019-04-26T23:13:14.990Z,67.80
2019-04-26T23:16:40.456Z,67.70
2019-04-26T23:19:49.392Z,67.90
2019-04-26T23:22:52.932Z,68.20
2019-04-26T23:25:55.428Z,68.40
2019-04-26T23:28:57.874Z,68.40
2019-04-26T23:32:00.359Z,69.20
2019-04-26T23:35:05.963Z,69.30
2019-04-26T23:38:07.254Z,69.30
2019-04-26T23:41:09.710Z,69.40
2019-04-26T23:44:13.229Z,69.70
2019-04-26T23:47:23.039Z,69.40
2019-04-26T23:50:25.559Z,69.70
2019-04-26T23:53:27.059Z,69.90
2019-04-26T23:56:29.486Z,69.90
2019-04-26T23:59:33.634Z,70.10
